createdAt,value
2023-02-21T00:02:01.787Z,3.00
2023-02-21T00:04:48.464Z,3.83
2023-02-21T00:07:33.956Z,3.67
2023-02-21T00:10:19.532Z,3.47
2023-02-21T00:13:05.387Z,3.57
2023-02-21T00:15:51.080Z,3.53
2023-02-21T00:18:38.582Z,4.57
2023-02-21T00:21:24.865Z,5.70
2023-02-21T00:24:10.746Z,4.83
2023-02-21T00:26:56.250Z,4.13
2023-02-21T00:29:41.731Z,3.27
2023-02-21T00:32:27.611Z,4.47
2023-02-21T00:35:14.669Z,3.43
2023-02-21T00:38:00.106Z,3.17
2023-02-21T00:40:45.717Z,2.93
2023-02-21T00:43:31.636Z,3.63
2023-02-21T00:46:17.272Z,4.43
2023-02-21T00:49:03.154Z,4.37
2023-02-21T00:51:50.281Z,6.03
2023-02-21T00:54:35.895Z,4.13
2023-02-21T00:57:21.381Z,6.57
2023-02-21T01:00:07.120Z,4.03
2023-02-21T01:02:52.818Z,3.83
2023-02-21T01:05:38.310Z,4.50
2023-02-21T01:08:25.151Z,3.87
2023-02-21T01:11:10.720Z,4.20
2023-02-21T01:13:56.346Z,4.73
2023-02-21T01:16:42.104Z,3.17
2023-02-21T01:19:27.745Z,4.57
2023-02-21T01:22:13.422Z,3.20
2023-02-21T01:25:00.685Z,5.17
2023-02-21T01:27:46.532Z,5.20
2023-02-21T01:30:32.576Z,4.00
2023-02-21T01:33:18.463Z,2.73
2023-02-21T01:36:03.997Z,3.40
2023-02-21T01:38:52.749Z,3.53
2023-02-21T01:41:40.431Z,3.77
2023-02-21T01:44:52.705Z,3.23
2023-02-21T01:47:39.092Z,3.00
2023-02-21T01:50:34.195Z,2.63
2023-02-21T01:53:23.735Z,3.53
2023-02-21T01:56:09.499Z,4.77
2023-02-21T01:58:56.941Z,2.53
2023-02-21T02:01:52.102Z,3.53
2023-02-21T02:04:38.219Z,4.37
2023-02-21T02:07:23.911Z,3.97
2023-02-21T02:10:09.550Z,3.33
2023-02-21T02:13:02.405Z,2.47
2023-02-21T02:15:43.842Z,4.87
2023-02-21T02:18:31.943Z,3.93
2023-02-21T02:22:05.229Z,3.53
2023-02-21T02:25:05.113Z,3.43
2023-02-21T02:27:58.439Z,2.63
2023-02-21T02:31:11.756Z,3.30
2023-02-21T02:34:39.952Z,3.63
2023-02-21T02:37:20.008Z,5.40
2023-02-21T02:39:56.857Z,3.53
2023-02-21T02:42:40.288Z,3.80
2023-02-21T02:45:16.799Z,2.50
2023-02-21T02:47:47.039Z,2.43
2023-02-21T02:50:16.800Z,6.47
2023-02-21T02:52:54.193Z,2.77
2023-02-21T02:55:41.143Z,2.53
2023-02-21T02:58:12.342Z,4.20
2023-02-21T03:00:46.836Z,3.70
2023-02-21T03:03:44.261Z,2.93
2023-02-21T03:06:26.723Z,2.20
2023-02-21T03:09:03.098Z,3.43
2023-02-21T03:11:31.556Z,4.07
2023-02-21T03:14:09.783Z,4.07
2023-02-21T03:16:45.052Z,3.77
2023-02-21T03:19:18.396Z,2.93
2023-02-21T03:21:51.006Z,3.40
2023-02-21T03:24:22.132Z,3.33
2023-02-21T03:26:54.853Z,3.10
2023-02-21T03:29:23.551Z,5.47
2023-02-21T03:31:57.855Z,2.93
2023-02-21T03:34:26.977Z,2.90
2023-02-21T03:36:55.281Z,4.67
2023-02-21T03:39:24.901Z,4.73
2023-02-21T03:41:53.243Z,3.30
2023-02-21T03:44:21.524Z,3.90
2023-02-21T03:46:49.774Z,5.97
2023-02-21T03:49:18.138Z,3.00
2023-02-21T03:51:46.499Z,2.73
2023-02-21T03:54:14.784Z,3.47
2023-02-21T03:56:44.471Z,2.97
2023-02-21T03:59:12.788Z,2.83
2023-02-21T04:01:41.139Z,5.40
2023-02-21T04:04:09.393Z,5.43
2023-02-21T04:06:37.686Z,2.77
2023-02-21T04:09:06.116Z,4.03
2023-02-21T04:11:34.367Z,2.60
2023-02-21T04:14:04.458Z,3.23
2023-02-21T04:16:32.769Z,4.20
2023-02-21T04:19:01.015Z,4.60
2023-02-21T04:21:29.404Z,2.87
2023-02-21T04:23:57.844Z,3.10
2023-02-21T04:26:26.145Z,4.73
2023-02-21T04:28:54.638Z,2.60
2023-02-21T04:31:24.527Z,4.33
2023-02-21T04:34:02.521Z,6.20
2023-02-21T04:36:34.265Z,6.20
2023-02-21T04:39:02.634Z,3.23
2023-02-21T04:41:30.880Z,4.80
2023-02-21T04:43:59.150Z,3.67
2023-02-21T04:46:28.795Z,3.53
2023-02-21T04:48:57.170Z,4.57
2023-02-21T04:51:27.287Z,4.07
2023-02-21T04:53:56.806Z,4.37
2023-02-21T04:56:27.515Z,4.77
2023-02-21T04:58:55.984Z,4.30
2023-02-21T05:01:31.272Z,4.27
2023-02-21T05:03:59.926Z,4.80
2023-02-21T05:06:30.221Z,3.60
2023-02-21T05:08:59.328Z,3.70
2023-02-21T05:11:28.336Z,7.17
2023-02-21T05:13:56.617Z,3.87
2023-02-21T05:16:25.385Z,4.57
2023-02-21T05:18:55.081Z,4.63
2023-02-21T05:21:23.332Z,5.80
2023-02-21T05:23:56.879Z,5.13
2023-02-21T05:26:27.944Z,7.43
2023-02-21T05:28:56.923Z,5.23
2023-02-21T05:31:25.414Z,5.80
2023-02-21T05:33:55.190Z,7.37
2023-02-21T05:36:25.846Z,7.17
2023-02-21T05:38:56.869Z,6.40
2023-02-21T05:41:25.560Z,5.97
2023-02-21T05:43:54.103Z,5.70
2023-02-21T05:46:25.716Z,6.13
2023-02-21T05:48:57.192Z,5.30
2023-02-21T05:51:26.027Z,6.07
2023-02-21T05:53:55.047Z,6.47
2023-02-21T05:56:23.608Z,8.27
2023-02-21T05:58:51.874Z,7.23
2023-02-21T06:01:20.144Z,4.93
2023-02-21T06:03:48.511Z,6.67
2023-02-21T06:06:18.261Z,5.47
2023-02-21T06:08:49.184Z,5.63
2023-02-21T06:11:24.507Z,8.00
2023-02-21T06:13:52.802Z,6.03
2023-02-21T06:16:21.178Z,6.60
2023-02-21T06:18:52.472Z,7.00
2023-02-21T06:21:22.497Z,6.57
2023-02-21T06:23:51.342Z,5.27
2023-02-21T06:26:20.496Z,6.23
2023-02-21T06:28:49.507Z,9.33
2023-02-21T06:31:19.278Z,8.23
2023-02-21T06:33:47.949Z,7.20
2023-02-21T06:36:21.756Z,5.87
2023-02-21T06:38:52.882Z,10.97
2023-02-21T06:41:25.578Z,8.43
2023-02-21T06:43:54.564Z,8.97
2023-02-21T06:46:25.224Z,9.13
2023-02-21T06:48:53.580Z,8.20
2023-02-21T06:51:29.257Z,10.23
2023-02-21T06:53:59.229Z,9.50
2023-02-21T06:56:28.001Z,7.53
2023-02-21T06:58:56.665Z,8.17
2023-02-21T07:01:27.932Z,7.07
2023-02-21T07:03:57.542Z,7.27
2023-02-21T07:06:29.569Z,7.40
2023-02-21T07:08:58.279Z,8.20
2023-02-21T07:11:26.592Z,8.30
2023-02-21T07:13:56.802Z,7.27
2023-02-21T07:16:25.114Z,10.80
2023-02-21T07:18:53.549Z,8.90
2023-02-21T07:21:22.873Z,8.20
2023-02-21T07:23:52.447Z,9.30
2023-02-21T07:26:20.931Z,9.90
2023-02-21T07:28:50.373Z,6.50
2023-02-21T07:31:20.747Z,6.63
2023-02-21T07:33:49.417Z,7.03
2023-02-21T07:36:17.748Z,7.97
2023-02-21T07:38:46.050Z,5.93
2023-02-21T07:41:17.178Z,7.27
2023-02-21T07:43:45.642Z,6.43
2023-02-21T07:46:15.272Z,15.07
2023-02-21T07:48:43.574Z,12.73
2023-02-21T07:51:12.099Z,20.87
2023-02-21T07:53:41.698Z,14.03
2023-02-21T07:56:10.100Z,9.03
2023-02-21T07:58:39.921Z,28.50
2023-02-21T08:01:09.281Z,24.23
2023-02-21T08:03:38.729Z,30.57
2023-02-21T08:06:07.286Z,45.03
2023-02-21T08:08:35.700Z,38.27
2023-02-21T08:11:04.180Z,38.73
2023-02-21T08:13:32.453Z,26.77
2023-02-21T08:16:02.111Z,19.97
2023-02-21T08:18:30.456Z,18.93
2023-02-21T08:20:58.740Z,11.00
2023-02-21T08:23:27.046Z,8.20
2023-02-21T08:25:55.347Z,10.20
2023-02-21T08:28:23.662Z,7.67
2023-02-21T08:30:52.697Z,12.10
2023-02-21T08:33:22.611Z,7.87
2023-02-21T08:35:50.993Z,8.60
2023-02-21T08:38:21.250Z,8.73
2023-02-21T08:40:51.418Z,7.30
2023-02-21T08:43:19.714Z,8.77
2023-02-21T08:45:48.069Z,8.33
2023-02-21T08:48:16.366Z,6.60
2023-02-21T08:50:46.140Z,8.67
2023-02-21T08:53:15.694Z,6.87
2023-02-21T08:55:44.202Z,8.03
2023-02-21T08:58:13.820Z,8.83
2023-02-21T09:00:42.883Z,7.57
2023-02-21T09:03:11.181Z,8.93
2023-02-21T09:05:40.646Z,15.57
2023-02-21T09:08:11.455Z,9.63
2023-02-21T09:10:47.370Z,12.40
2023-02-21T09:13:16.006Z,12.03
2023-02-21T09:15:44.985Z,10.57
2023-02-21T09:18:13.587Z,10.33
2023-02-21T09:20:42.809Z,9.90
2023-02-21T09:23:15.426Z,19.03
2023-02-21T09:25:43.707Z,17.37
2023-02-21T09:28:12.012Z,12.60
2023-02-21T09:30:40.342Z,13.50
2023-02-21T09:33:09.303Z,8.43
2023-02-21T09:35:37.605Z,7.07
2023-02-21T09:38:07.137Z,6.57
2023-02-21T09:40:43.149Z,7.17
2023-02-21T09:43:17.101Z,6.90
2023-02-21T09:45:47.105Z,6.57
2023-02-21T09:48:19.770Z,10.60
2023-02-21T09:50:51.729Z,7.40
2023-02-21T09:53:24.617Z,7.40
2023-02-21T09:56:00.209Z,7.53
2023-02-21T09:58:30.304Z,6.13
2023-02-21T10:01:02.751Z,5.30
2023-02-21T10:03:55.206Z,5.53
2023-02-21T10:06:39.361Z,4.57
2023-02-21T10:09:19.637Z,5.20
2023-02-21T10:12:03.635Z,5.43
2023-02-21T10:14:44.791Z,4.87
2023-02-21T10:17:22.878Z,6.07
2023-02-21T10:19:56.629Z,7.90
2023-02-21T10:22:30.295Z,4.50
2023-02-21T10:24:58.638Z,7.30
2023-02-21T10:27:32.361Z,9.97
2023-02-21T10:30:05.751Z,3.97
2023-02-21T10:32:34.593Z,4.53
2023-02-21T10:35:02.891Z,5.13
2023-02-21T10:37:41.260Z,3.20
2023-02-21T10:40:33.345Z,3.03
2023-02-21T10:43:09.502Z,2.70
2023-02-21T10:45:45.552Z,2.53
2023-02-21T10:48:15.237Z,4.17
2023-02-21T10:50:51.798Z,6.60
2023-02-21T10:53:30.676Z,7.10
2023-02-21T10:56:26.139Z,6.77
2023-02-21T10:58:59.395Z,3.57
2023-02-21T11:01:39.728Z,3.77
2023-02-21T11:04:25.595Z,3.47
2023-02-21T11:06:56.747Z,2.87
2023-02-21T11:09:37.153Z,3.93
2023-02-21T11:12:18.912Z,4.23
2023-02-21T11:15:17.477Z,3.63
2023-02-21T11:17:47.085Z,3.60
2023-02-21T11:20:23.563Z,3.80
2023-02-21T11:22:52.778Z,3.97
2023-02-21T11:25:28.250Z,3.90
2023-02-21T11:28:08.636Z,3.63
2023-02-21T11:30:44.490Z,4.63
2023-02-21T11:33:12.920Z,2.67
2023-02-21T11:35:47.987Z,3.80
2023-02-21T11:38:36.599Z,2.97
2023-02-21T11:41:17.950Z,3.27
2023-02-21T11:43:50.750Z,3.77
2023-02-21T11:46:34.200Z,3.20
2023-02-21T11:49:07.885Z,3.63
2023-02-21T11:51:43.288Z,3.23
2023-02-21T11:54:12.141Z,3.53
2023-02-21T11:56:49.726Z,3.60
2023-02-21T11:59:34.300Z,3.73
2023-02-21T12:02:37.509Z,2.77
2023-02-21T12:05:19.974Z,4.23
2023-02-21T12:07:57.585Z,5.10
2023-02-21T12:10:43.721Z,5.47
2023-02-21T12:13:25.411Z,3.60
2023-02-21T12:16:03.237Z,4.33
2023-02-21T12:18:50.791Z,3.60
2023-02-21T12:21:44.440Z,4.10
2023-02-21T12:24:29.622Z,2.77
2023-02-21T12:27:04.082Z,2.23
2023-02-21T12:29:58.197Z,2.30
2023-02-21T12:32:51.154Z,3.73
2023-02-21T12:36:12.294Z,2.97
2023-02-21T12:38:54.819Z,1.67
2023-02-21T12:41:51.630Z,1.90
2023-02-21T12:44:23.722Z,2.43
2023-02-21T12:46:59.064Z,2.10
2023-02-21T12:49:36.512Z,2.53
2023-02-21T12:52:16.626Z,1.73
2023-02-21T12:54:51.865Z,2.00
2023-02-21T12:57:27.660Z,1.93
2023-02-21T13:00:08.011Z,1.73
2023-02-21T13:02:44.861Z,1.70
2023-02-21T13:05:19.743Z,2.00
2023-02-21T13:07:57.020Z,2.00
2023-02-21T13:10:31.526Z,1.87
2023-02-21T13:13:04.464Z,1.53
2023-02-21T13:15:33.212Z,1.93
2023-02-21T13:18:08.024Z,1.83
2023-02-21T13:20:40.366Z,2.57
2023-02-21T13:24:10.108Z,1.73
2023-02-21T13:27:16.669Z,2.23
2023-02-21T13:29:45.846Z,1.40
2023-02-21T13:32:17.429Z,1.50
2023-02-21T13:34:53.858Z,2.47
2023-02-21T13:37:27.477Z,2.17
2023-02-21T13:40:07.499Z,1.57
2023-02-21T13:42:38.997Z,3.57
2023-02-21T13:45:19.532Z,1.27
2023-02-21T13:48:21.197Z,1.57
2023-02-21T13:50:51.472Z,2.50
2023-02-21T13:53:22.863Z,2.47
2023-02-21T13:56:18.708Z,1.63
2023-02-21T13:58:48.775Z,1.50
2023-02-21T14:01:42.925Z,1.43
2023-02-21T14:05:06.712Z,1.20
2023-02-21T14:08:03.635Z,1.50
2023-02-21T14:10:39.397Z,3.13
2023-02-21T14:13:22.693Z,1.83
2023-02-21T14:15:59.313Z,2.33
2023-02-21T14:18:31.742Z,2.30
2023-02-21T14:21:00.738Z,3.30
2023-02-21T14:23:42.311Z,2.00
2023-02-21T14:26:42.250Z,3.03
2023-02-21T14:29:28.955Z,2.93
2023-02-21T14:31:59.333Z,2.30
2023-02-21T14:34:38.889Z,2.37
2023-02-21T14:37:18.591Z,2.67
2023-02-21T14:39:53.906Z,1.70
2023-02-21T14:42:42.408Z,1.87
2023-02-21T14:45:56.440Z,2.00
2023-02-21T14:49:00.344Z,1.73
2023-02-21T14:52:03.856Z,2.13
2023-02-21T14:55:25.328Z,1.70
2023-02-21T14:58:37.817Z,3.23
2023-02-21T15:01:14.778Z,3.87
2023-02-21T15:03:48.998Z,2.23
2023-02-21T15:06:23.725Z,2.07
2023-02-21T15:08:54.924Z,1.90
2023-02-21T15:11:28.789Z,2.17
2023-02-21T15:14:26.219Z,1.80
2023-02-21T15:16:57.938Z,1.80
2023-02-21T15:19:30.411Z,2.97
2023-02-21T15:22:24.173Z,1.50
2023-02-21T15:25:21.977Z,2.23
2023-02-21T15:28:22.256Z,7.27
2023-02-21T15:31:02.666Z,2.60
2023-02-21T15:33:34.792Z,1.67
2023-02-21T15:36:07.297Z,2.20
2023-02-21T15:38:41.756Z,2.50
2023-02-21T15:41:16.649Z,3.03
2023-02-21T15:43:51.389Z,2.43
2023-02-21T15:46:25.337Z,1.90
2023-02-21T15:48:55.996Z,2.23
2023-02-21T15:51:24.720Z,2.70
2023-02-21T15:54:27.550Z,3.43
2023-02-21T15:57:04.144Z,3.53
2023-02-21T15:59:33.765Z,3.90
2023-02-21T16:02:17.209Z,2.77
2023-02-21T16:04:47.914Z,4.20
2023-02-21T16:07:21.997Z,2.53
2023-02-21T16:09:53.443Z,4.83
2023-02-21T16:12:34.465Z,2.73
2023-02-21T16:15:07.856Z,2.67
2023-02-21T16:17:40.165Z,4.43
2023-02-21T16:20:18.699Z,4.67
2023-02-21T16:25:37.489Z,5.27
2023-02-21T16:28:14.121Z,4.03
2023-02-21T16:30:42.503Z,5.50
2023-02-21T16:33:14.970Z,2.83
2023-02-21T16:35:44.531Z,2.53
2023-02-21T16:38:17.583Z,4.60
2023-02-21T16:40:46.553Z,2.97
2023-02-21T16:43:19.998Z,2.10
2023-02-21T16:45:49.565Z,4.93
2023-02-21T16:48:23.586Z,6.70
2023-02-21T16:50:52.908Z,8.47
2023-02-21T16:53:22.992Z,4.67
2023-02-21T16:55:52.856Z,7.97
2023-02-21T16:58:26.584Z,7.30
2023-02-21T17:00:57.518Z,3.70
2023-02-21T17:03:28.537Z,4.13
2023-02-21T17:05:58.360Z,4.70
2023-02-21T17:08:27.725Z,5.80
2023-02-21T17:10:57.248Z,8.63
2023-02-21T17:13:25.655Z,7.00
2023-02-21T17:15:54.750Z,6.43
2023-02-21T17:18:23.073Z,6.40
2023-02-21T17:20:52.704Z,8.27
2023-02-21T17:23:21.072Z,4.33
2023-02-21T17:25:49.757Z,6.67
2023-02-21T17:28:18.424Z,7.17
2023-02-21T17:30:47.669Z,13.00
2023-02-21T17:33:16.225Z,14.37
2023-02-21T17:35:44.831Z,6.67
2023-02-21T17:38:14.864Z,14.90
2023-02-21T17:40:45.622Z,8.47
2023-02-21T17:43:16.511Z,7.30
2023-02-21T17:45:46.076Z,6.43
2023-02-21T17:48:14.388Z,6.37
2023-02-21T17:50:42.756Z,30.57
2023-02-21T17:53:11.044Z,17.50
2023-02-21T17:55:40.838Z,13.27
2023-02-21T17:58:09.710Z,11.33
2023-02-21T18:00:39.368Z,9.27
2023-02-21T18:03:09.348Z,20.67
2023-02-21T18:05:38.282Z,16.30
2023-02-21T18:08:07.556Z,10.10
2023-02-21T18:10:35.946Z,7.40
2023-02-21T18:13:05.799Z,8.10
2023-02-21T18:15:34.066Z,6.03
2023-02-21T18:18:07.119Z,5.53
2023-02-21T18:20:46.972Z,6.77
2023-02-21T18:23:16.259Z,5.43
2023-02-21T18:25:44.566Z,7.10
2023-02-21T18:28:14.224Z,5.13
2023-02-21T18:30:42.874Z,5.50
2023-02-21T18:33:11.195Z,7.27
2023-02-21T18:35:39.401Z,7.57
2023-02-21T18:38:07.744Z,6.97
2023-02-21T18:40:37.769Z,5.57
2023-02-21T18:43:06.960Z,5.97
2023-02-21T18:45:36.792Z,6.50
2023-02-21T18:48:05.363Z,6.87
2023-02-21T18:50:33.577Z,5.93
2023-02-21T18:53:03.943Z,6.33
2023-02-21T18:55:32.301Z,8.00
2023-02-21T18:58:00.776Z,80.83
2023-02-21T19:00:31.101Z,72.63
2023-02-21T19:03:01.139Z,69.07
2023-02-21T19:05:29.970Z,40.90
2023-02-21T19:07:59.330Z,50.57
2023-02-21T19:10:29.520Z,23.07
2023-02-21T19:12:59.431Z,15.57
2023-02-21T19:15:27.817Z,13.23
2023-02-21T19:17:56.037Z,10.10
2023-02-21T19:20:25.916Z,12.87
2023-02-21T19:22:55.668Z,10.57
2023-02-21T19:25:26.906Z,10.20
2023-02-21T19:28:00.371Z,8.70
2023-02-21T19:30:32.869Z,7.93
2023-02-21T19:33:02.561Z,5.47
2023-02-21T19:35:34.225Z,9.50
2023-02-21T19:38:05.669Z,10.30
2023-02-21T19:40:35.809Z,14.60
2023-02-21T19:43:06.393Z,15.37
2023-02-21T19:45:35.225Z,21.00
2023-02-21T19:48:03.606Z,22.73
2023-02-21T19:50:34.834Z,15.13
2023-02-21T19:53:03.294Z,12.33
2023-02-21T19:55:31.978Z,10.17
2023-02-21T19:58:00.295Z,14.50
2023-02-21T20:00:29.717Z,17.00
2023-02-21T20:02:57.936Z,16.40
2023-02-21T20:05:27.243Z,18.20
2023-02-21T20:07:57.929Z,14.47
2023-02-21T20:10:26.821Z,14.67
2023-02-21T20:12:56.617Z,16.97
2023-02-21T20:15:25.139Z,15.13
2023-02-21T20:17:54.753Z,12.70
2023-02-21T20:20:23.075Z,14.83
2023-02-21T20:22:51.333Z,14.73
2023-02-21T20:25:21.940Z,13.10
2023-02-21T20:27:50.246Z,13.43
2023-02-21T20:30:18.890Z,12.13
2023-02-21T20:32:47.149Z,9.73
2023-02-21T20:35:15.433Z,13.37
2023-02-21T20:37:43.721Z,10.03
2023-02-21T20:40:15.325Z,16.97
2023-02-21T20:42:45.025Z,33.47
2023-02-21T20:45:13.562Z,22.23
2023-02-21T20:47:41.813Z,29.30
2023-02-21T20:50:10.445Z,19.93
2023-02-21T20:52:40.949Z,29.63
2023-02-21T20:55:10.441Z,38.83
2023-02-21T20:57:38.702Z,33.67
2023-02-21T21:00:10.411Z,21.63
2023-02-21T21:02:39.266Z,22.73
2023-02-21T21:05:13.656Z,27.17
2023-02-21T21:07:44.461Z,37.00
2023-02-21T21:10:16.493Z,23.67
2023-02-21T21:12:45.548Z,16.23
2023-02-21T21:15:15.878Z,21.03
2023-02-21T21:17:44.669Z,18.20
2023-02-21T21:20:17.882Z,15.10
2023-02-21T21:22:46.544Z,14.67
2023-02-21T21:25:17.078Z,13.47
2023-02-21T21:27:46.567Z,12.27
2023-02-21T21:30:22.693Z,10.93
2023-02-21T21:32:51.280Z,9.70
2023-02-21T21:35:20.887Z,10.57
2023-02-21T21:37:50.090Z,7.80
2023-02-21T21:40:18.673Z,7.30
2023-02-21T21:42:50.421Z,9.03
2023-02-21T21:45:25.072Z,11.67
2023-02-21T21:47:58.444Z,10.70
2023-02-21T21:50:27.564Z,5.63
2023-02-21T21:52:58.510Z,8.00
2023-02-21T21:55:30.719Z,6.60
2023-02-21T21:57:59.290Z,7.87
2023-02-21T22:00:30.987Z,11.17
2023-02-21T22:03:02.028Z,9.23
2023-02-21T22:05:32.251Z,7.70
2023-02-21T22:08:00.679Z,12.03
2023-02-21T22:10:30.272Z,10.60
2023-02-21T22:13:00.534Z,9.57
2023-02-21T22:15:31.368Z,7.13
2023-02-21T22:18:03.890Z,8.07
2023-02-21T22:20:32.344Z,8.07
2023-02-21T22:23:00.774Z,7.10
2023-02-21T22:25:32.013Z,7.53
2023-02-21T22:28:04.833Z,4.93
2023-02-21T22:30:34.431Z,7.33
2023-02-21T22:33:03.584Z,7.80
2023-02-21T22:35:31.972Z,6.53
2023-02-21T22:38:02.628Z,7.57
2023-02-21T22:40:35.613Z,8.40
2023-02-21T22:43:08.959Z,7.97
2023-02-21T22:45:39.359Z,6.93
2023-02-21T22:48:10.099Z,6.87
2023-02-21T22:50:39.491Z,7.17
2023-02-21T22:53:13.046Z,7.93
2023-02-21T22:55:41.565Z,7.07
2023-02-21T22:58:11.333Z,5.97
2023-02-21T23:00:41.094Z,6.33
2023-02-21T23:03:13.803Z,6.47
2023-02-21T23:05:44.664Z,6.17
2023-02-21T23:08:15.582Z,5.53
2023-02-21T23:10:44.610Z,5.47
2023-02-21T23:13:15.348Z,6.87
2023-02-21T23:15:46.547Z,8.07
2023-02-21T23:18:20.453Z,5.33
2023-02-21T23:20:52.702Z,5.97
2023-02-21T23:23:21.953Z,37.30
2023-02-21T23:25:50.282Z,24.40
2023-02-21T23:28:18.648Z,10.33
2023-02-21T23:30:49.651Z,11.37
2023-02-21T23:33:22.879Z,10.80
2023-02-21T23:35:53.672Z,13.47
2023-02-21T23:38:28.167Z,9.47
2023-02-21T23:40:59.652Z,7.77
2023-02-21T23:43:30.266Z,8.50
2023-02-21T23:46:01.247Z,8.33
2023-02-21T23:48:32.669Z,9.47
2023-02-21T23:51:01.365Z,6.67
2023-02-21T23:53:31.833Z,7.23
2023-02-21T23:56:00.754Z,8.50
2023-02-21T23:58:31.525Z,6.73
